sensor_id;sensor_type;location;lat;lon;timestamp;P1;durP1;ratioP1;P2;durP2;ratioP2
58581;SDS011;44361;51.476;5.700;2023-08-17T00:02:14;7.10;;;2.60;;
58581;SDS011;44361;51.476;5.700;2023-08-17T00:04:40;5.88;;;1.90;;
58581;SDS011;44361;51.476;5.700;2023-08-17T00:07:06;4.10;;;2.17;;
58581;SDS011;44361;51.476;5.700;2023-08-17T00:09:32;6.30;;;2.25;;
58581;SDS011;44361;51.476;5.700;2023-08-17T00:11:57;6.18;;;2.50;;
58581;SDS011;44361;51.476;5.700;2023-08-17T00:14:23;7.68;;;2.63;;
58581;SDS011;44361;51.476;5.700;2023-08-17T00:16:49;10.65;;;2.63;;
58581;SDS011;44361;51.476;5.700;2023-08-17T00:19:15;5.82;;;2.45;;
58581;SDS011;44361;51.476;5.700;2023-08-17T00:21:41;9.52;;;2.42;;
58581;SDS011;44361;51.476;5.700;2023-08-17T00:24:07;3.60;;;2.50;;
58581;SDS011;44361;51.476;5.700;2023-08-17T00:26:33;12.98;;;2.78;;
58581;SDS011;44361;51.476;5.700;2023-08-17T00:28:58;5.95;;;2.20;;
58581;SDS011;44361;51.476;5.700;2023-08-17T00:31:24;5.35;;;2.05;;
58581;SDS011;44361;51.476;5.700;2023-08-17T00:33:49;3.92;;;2.28;;
58581;SDS011;44361;51.476;5.700;2023-08-17T00:36:15;7.28;;;2.00;;
58581;SDS011;44361;51.476;5.700;2023-08-17T00:38:40;6.90;;;2.50;;
58581;SDS011;44361;51.476;5.700;2023-08-17T00:41:06;6.07;;;2.25;;
58581;SDS011;44361;51.476;5.700;2023-08-17T00:43:31;10.90;;;2.70;;
58581;SDS011;44361;51.476;5.700;2023-08-17T00:45:57;4.55;;;2.33;;
58581;SDS011;44361;51.476;5.700;2023-08-17T00:48:23;5.57;;;2.28;;
58581;SDS011;44361;51.476;5.700;2023-08-17T00:50:49;4.05;;;2.25;;
58581;SDS011;44361;51.476;5.700;2023-08-17T00:53:17;6.38;;;2.60;;
58581;SDS011;44361;51.476;5.700;2023-08-17T00:55:44;4.85;;;2.40;;
58581;SDS011;44361;51.476;5.700;2023-08-17T00:58:09;4.03;;;2.22;;
58581;SDS011;44361;51.476;5.700;2023-08-17T01:00:35;6.47;;;2.22;;
58581;SDS011;44361;51.476;5.700;2023-08-17T01:03:01;8.48;;;1.90;;
58581;SDS011;44361;51.476;5.700;2023-08-17T01:05:26;3.55;;;2.55;;
58581;SDS011;44361;51.476;5.700;2023-08-17T01:07:52;7.07;;;2.28;;
58581;SDS011;44361;51.476;5.700;2023-08-17T01:10:17;7.95;;;2.45;;
58581;SDS011;44361;51.476;5.700;2023-08-17T01:12:48;5.72;;;2.30;;
58581;SDS011;44361;51.476;5.700;2023-08-17T01:20:34;8.90;;;1.92;;
58581;SDS011;44361;51.476;5.700;2023-08-17T01:23:04;5.60;;;2.25;;
58581;SDS011;44361;51.476;5.700;2023-08-17T01:25:31;5.82;;;2.30;;
58581;SDS011;44361;51.476;5.700;2023-08-17T01:28:01;3.95;;;2.28;;
58581;SDS011;44361;51.476;5.700;2023-08-17T01:30:28;6.90;;;2.22;;
58581;SDS011;44361;51.476;5.700;2023-08-17T01:33:00;4.93;;;2.00;;
58581;SDS011;44361;51.476;5.700;2023-08-17T01:35:31;9.45;;;2.35;;
58581;SDS011;44361;51.476;5.700;2023-08-17T01:38:04;4.20;;;2.17;;
58581;SDS011;44361;51.476;5.700;2023-08-17T01:40:34;3.30;;;1.95;;
58581;SDS011;44361;51.476;5.700;2023-08-17T01:43:04;4.85;;;2.30;;
58581;SDS011;44361;51.476;5.700;2023-08-17T01:45:30;9.52;;;2.35;;
58581;SDS011;44361;51.476;5.700;2023-08-17T01:47:56;6.35;;;2.15;;
58581;SDS011;44361;51.476;5.700;2023-08-17T01:50:21;5.75;;;2.25;;
58581;SDS011;44361;51.476;5.700;2023-08-17T01:52:47;2.58;;;2.10;;
58581;SDS011;44361;51.476;5.700;2023-08-17T01:55:12;7.80;;;2.40;;
58581;SDS011;44361;51.476;5.700;2023-08-17T01:57:38;5.70;;;2.40;;
58581;SDS011;44361;51.476;5.700;2023-08-17T02:00:04;4.35;;;2.42;;
58581;SDS011;44361;51.476;5.700;2023-08-17T02:02:30;5.38;;;2.90;;
58581;SDS011;44361;51.476;5.700;2023-08-17T02:04:56;3.85;;;2.30;;
58581;SDS011;44361;51.476;5.700;2023-08-17T02:07:22;3.63;;;2.17;;
58581;SDS011;44361;51.476;5.700;2023-08-17T02:09:47;4.60;;;2.38;;
58581;SDS011;44361;51.476;5.700;2023-08-17T02:12:13;9.40;;;2.47;;
58581;SDS011;44361;51.476;5.700;2023-08-17T02:14:39;6.35;;;2.20;;
58581;SDS011;44361;51.476;5.700;2023-08-17T02:17:04;4.43;;;2.38;;
58581;SDS011;44361;51.476;5.700;2023-08-17T02:19:30;4.72;;;2.55;;
58581;SDS011;44361;51.476;5.700;2023-08-17T02:21:56;3.13;;;2.17;;
58581;SDS011;44361;51.476;5.700;2023-08-17T02:24:22;7.65;;;2.03;;
58581;SDS011;44361;51.476;5.700;2023-08-17T02:26:47;9.13;;;2.17;;
58581;SDS011;44361;51.476;5.700;2023-08-17T02:29:13;3.15;;;2.00;;
58581;SDS011;44361;51.476;5.700;2023-08-17T02:31:38;3.22;;;1.92;;
58581;SDS011;44361;51.476;5.700;2023-08-17T02:34:04;4.82;;;2.10;;
58581;SDS011;44361;51.476;5.700;2023-08-17T02:36:30;8.73;;;2.50;;
58581;SDS011;44361;51.476;5.700;2023-08-17T02:38:56;6.25;;;2.22;;
58581;SDS011;44361;51.476;5.700;2023-08-17T02:41:22;5.07;;;2.00;;
58581;SDS011;44361;51.476;5.700;2023-08-17T02:43:47;7.00;;;2.40;;
58581;SDS011;44361;51.476;5.700;2023-08-17T02:46:13;5.47;;;2.28;;
58581;SDS011;44361;51.476;5.700;2023-08-17T02:48:39;4.13;;;2.40;;
58581;SDS011;44361;51.476;5.700;2023-08-17T02:51:04;4.25;;;2.15;;
58581;SDS011;44361;51.476;5.700;2023-08-17T02:53:30;5.40;;;2.42;;
58581;SDS011;44361;51.476;5.700;2023-08-17T02:55:55;7.68;;;2.13;;
58581;SDS011;44361;51.476;5.700;2023-08-17T02:58:21;7.35;;;2.40;;
58581;SDS011;44361;51.476;5.700;2023-08-17T03:00:46;5.28;;;2.25;;
58581;SDS011;44361;51.476;5.700;2023-08-17T03:03:12;10.25;;;2.30;;
58581;SDS011;44361;51.476;5.700;2023-08-17T03:05:37;7.45;;;2.55;;
58581;SDS011;44361;51.476;5.700;2023-08-17T03:08:03;6.00;;;2.45;;
58581;SDS011;44361;51.476;5.700;2023-08-17T03:10:29;6.93;;;2.50;;
58581;SDS011;44361;51.476;5.700;2023-08-17T03:12:55;6.72;;;2.53;;
58581;SDS011;44361;51.476;5.700;2023-08-17T03:15:20;5.63;;;2.10;;
58581;SDS011;44361;51.476;5.700;2023-08-17T03:17:46;6.60;;;2.45;;
58581;SDS011;44361;51.476;5.700;2023-08-17T03:20:12;3.55;;;2.00;;
58581;SDS011;44361;51.476;5.700;2023-08-17T03:22:37;9.23;;;2.13;;
58581;SDS011;44361;51.476;5.700;2023-08-17T03:25:03;4.72;;;2.25;;
58581;SDS011;44361;51.476;5.700;2023-08-17T03:27:29;6.22;;;2.58;;
58581;SDS011;44361;51.476;5.700;2023-08-17T03:29:54;5.03;;;2.33;;
58581;SDS011;44361;51.476;5.700;2023-08-17T03:32:20;5.68;;;2.30;;
58581;SDS011;44361;51.476;5.700;2023-08-17T03:34:46;6.35;;;2.47;;
58581;SDS011;44361;51.476;5.700;2023-08-17T03:37:11;6.60;;;2.88;;
58581;SDS011;44361;51.476;5.700;2023-08-17T03:39:37;10.32;;;3.05;;
58581;SDS011;44361;51.476;5.700;2023-08-17T03:42:02;7.47;;;2.78;;
58581;SDS011;44361;51.476;5.700;2023-08-17T03:44:28;6.43;;;3.03;;
58581;SDS011;44361;51.476;5.700;2023-08-17T03:46:53;9.45;;;3.05;;
58581;SDS011;44361;51.476;5.700;2023-08-17T03:49:19;8.18;;;3.90;;
58581;SDS011;44361;51.476;5.700;2023-08-17T03:51:44;8.65;;;4.00;;
58581;SDS011;44361;51.476;5.700;2023-08-17T03:54:11;6.75;;;3.67;;
58581;SDS011;44361;51.476;5.700;2023-08-17T03:56:37;8.50;;;3.47;;
58581;SDS011;44361;51.476;5.700;2023-08-17T03:59:03;8.80;;;3.20;;
58581;SDS011;44361;51.476;5.700;2023-08-17T04:01:29;8.38;;;4.03;;
58581;SDS011;44361;51.476;5.700;2023-08-17T04:03:54;8.30;;;4.40;;
58581;SDS011;44361;51.476;5.700;2023-08-17T04:06:20;6.93;;;3.03;;
58581;SDS011;44361;51.476;5.700;2023-08-17T04:08:46;11.55;;;3.40;;
58581;SDS011;44361;51.476;5.700;2023-08-17T04:11:11;6.70;;;3.35;;
58581;SDS011;44361;51.476;5.700;2023-08-17T04:13:37;7.30;;;3.60;;
58581;SDS011;44361;51.476;5.700;2023-08-17T04:16:02;4.80;;;3.13;;
58581;SDS011;44361;51.476;5.700;2023-08-17T04:18:28;7.30;;;3.30;;
58581;SDS011;44361;51.476;5.700;2023-08-17T04:20:54;7.20;;;3.30;;
58581;SDS011;44361;51.476;5.700;2023-08-17T04:23:19;6.30;;;3.28;;
58581;SDS011;44361;51.476;5.700;2023-08-17T04:25:46;11.43;;;3.25;;
58581;SDS011;44361;51.476;5.700;2023-08-17T04:28:12;5.93;;;3.10;;
58581;SDS011;44361;51.476;5.700;2023-08-17T04:30:38;11.85;;;3.67;;
58581;SDS011;44361;51.476;5.700;2023-08-17T04:33:04;12.20;;;4.03;;
58581;SDS011;44361;51.476;5.700;2023-08-17T04:35:30;6.78;;;3.22;;
58581;SDS011;44361;51.476;5.700;2023-08-17T04:37:56;9.98;;;3.15;;
58581;SDS011;44361;51.476;5.700;2023-08-17T04:40:21;6.75;;;3.20;;
58581;SDS011;44361;51.476;5.700;2023-08-17T04:42:47;7.05;;;4.13;;
58581;SDS011;44361;51.476;5.700;2023-08-17T04:45:13;5.38;;;3.30;;
58581;SDS011;44361;51.476;5.700;2023-08-17T04:47:39;8.27;;;3.08;;
58581;SDS011;44361;51.476;5.700;2023-08-17T04:50:05;5.53;;;2.90;;
58581;SDS011;44361;51.476;5.700;2023-08-17T04:52:31;8.68;;;3.20;;
58581;SDS011;44361;51.476;5.700;2023-08-17T04:54:57;5.97;;;3.22;;
58581;SDS011;44361;51.476;5.700;2023-08-17T04:57:22;7.93;;;3.15;;
58581;SDS011;44361;51.476;5.700;2023-08-17T04:59:48;8.60;;;3.28;;
58581;SDS011;44361;51.476;5.700;2023-08-17T05:02:13;5.97;;;3.63;;
58581;SDS011;44361;51.476;5.700;2023-08-17T05:04:39;6.75;;;3.40;;
58581;SDS011;44361;51.476;5.700;2023-08-17T05:07:05;9.68;;;3.70;;
58581;SDS011;44361;51.476;5.700;2023-08-17T05:09:30;10.57;;;3.28;;
58581;SDS011;44361;51.476;5.700;2023-08-17T05:11:56;5.32;;;3.50;;
58581;SDS011;44361;51.476;5.700;2023-08-17T05:14:21;8.68;;;3.67;;
58581;SDS011;44361;51.476;5.700;2023-08-17T05:16:47;10.27;;;3.50;;
58581;SDS011;44361;51.476;5.700;2023-08-17T05:19:12;8.77;;;2.88;;
58581;SDS011;44361;51.476;5.700;2023-08-17T05:21:38;6.03;;;3.05;;
58581;SDS011;44361;51.476;5.700;2023-08-17T05:24:03;7.18;;;3.38;;
58581;SDS011;44361;51.476;5.700;2023-08-17T05:26:29;9.88;;;3.10;;
58581;SDS011;44361;51.476;5.700;2023-08-17T05:28:55;7.80;;;3.03;;
58581;SDS011;44361;51.476;5.700;2023-08-17T05:31:20;9.57;;;3.22;;
58581;SDS011;44361;51.476;5.700;2023-08-17T05:33:46;5.05;;;3.03;;
58581;SDS011;44361;51.476;5.700;2023-08-17T05:36:12;5.03;;;2.95;;
58581;SDS011;44361;51.476;5.700;2023-08-17T05:38:38;7.13;;;3.17;;
58581;SDS011;44361;51.476;5.700;2023-08-17T05:41:03;12.10;;;3.30;;
58581;SDS011;44361;51.476;5.700;2023-08-17T05:43:29;7.10;;;3.60;;
58581;SDS011;44361;51.476;5.700;2023-08-17T05:45:56;7.40;;;3.60;;
58581;SDS011;44361;51.476;5.700;2023-08-17T05:48:24;7.85;;;3.45;;
58581;SDS011;44361;51.476;5.700;2023-08-17T05:50:50;9.38;;;3.78;;
58581;SDS011;44361;51.476;5.700;2023-08-17T05:53:16;11.38;;;4.10;;
58581;SDS011;44361;51.476;5.700;2023-08-17T05:55:41;8.32;;;3.50;;
58581;SDS011;44361;51.476;5.700;2023-08-17T05:58:07;10.10;;;3.58;;
58581;SDS011;44361;51.476;5.700;2023-08-17T06:00:32;10.48;;;3.63;;
58581;SDS011;44361;51.476;5.700;2023-08-17T06:02:58;6.43;;;3.20;;
58581;SDS011;44361;51.476;5.700;2023-08-17T06:05:26;10.25;;;3.35;;
58581;SDS011;44361;51.476;5.700;2023-08-17T06:07:53;6.72;;;3.20;;
58581;SDS011;44361;51.476;5.700;2023-08-17T06:10:19;9.10;;;3.05;;
58581;SDS011;44361;51.476;5.700;2023-08-17T06:12:45;10.15;;;3.55;;
58581;SDS011;44361;51.476;5.700;2023-08-17T06:15:13;8.93;;;3.75;;
58581;SDS011;44361;51.476;5.700;2023-08-17T06:17:38;5.75;;;3.05;;
58581;SDS011;44361;51.476;5.700;2023-08-17T06:20:04;8.80;;;3.22;;
58581;SDS011;44361;51.476;5.700;2023-08-17T06:22:30;6.13;;;3.05;;
58581;SDS011;44361;51.476;5.700;2023-08-17T06:24:56;5.38;;;2.92;;
58581;SDS011;44361;51.476;5.700;2023-08-17T06:27:21;7.05;;;3.08;;
58581;SDS011;44361;51.476;5.700;2023-08-17T06:29:47;6.75;;;3.00;;
58581;SDS011;44361;51.476;5.700;2023-08-17T06:32:12;9.27;;;3.10;;
58581;SDS011;44361;51.476;5.700;2023-08-17T06:34:38;5.43;;;3.13;;
58581;SDS011;44361;51.476;5.700;2023-08-17T06:37:03;8.57;;;3.30;;
58581;SDS011;44361;51.476;5.700;2023-08-17T06:39:29;7.32;;;2.95;;
58581;SDS011;44361;51.476;5.700;2023-08-17T06:41:55;7.72;;;2.75;;
58581;SDS011;44361;51.476;5.700;2023-08-17T06:44:21;7.88;;;3.13;;
58581;SDS011;44361;51.476;5.700;2023-08-17T06:46:46;8.73;;;3.05;;
58581;SDS011;44361;51.476;5.700;2023-08-17T06:49:12;4.13;;;2.65;;
58581;SDS011;44361;51.476;5.700;2023-08-17T06:51:38;6.70;;;3.00;;
58581;SDS011;44361;51.476;5.700;2023-08-17T06:54:04;7.10;;;2.80;;
58581;SDS011;44361;51.476;5.700;2023-08-17T06:56:32;7.45;;;2.70;;
58581;SDS011;44361;51.476;5.700;2023-08-17T06:58:57;9.48;;;3.30;;
58581;SDS011;44361;51.476;5.700;2023-08-17T07:01:23;11.10;;;3.42;;
58581;SDS011;44361;51.476;5.700;2023-08-17T07:03:48;7.25;;;3.30;;
58581;SDS011;44361;51.476;5.700;2023-08-17T07:06:14;7.22;;;2.95;;
58581;SDS011;44361;51.476;5.700;2023-08-17T07:08:39;10.30;;;3.10;;
58581;SDS011;44361;51.476;5.700;2023-08-17T07:11:05;7.85;;;2.90;;
58581;SDS011;44361;51.476;5.700;2023-08-17T07:13:31;8.55;;;3.10;;
58581;SDS011;44361;51.476;5.700;2023-08-17T07:15:56;9.05;;;2.97;;
58581;SDS011;44361;51.476;5.700;2023-08-17T07:18:22;8.18;;;3.40;;
58581;SDS011;44361;51.476;5.700;2023-08-17T07:20:47;5.25;;;3.10;;
58581;SDS011;44361;51.476;5.700;2023-08-17T07:23:14;6.15;;;2.90;;
58581;SDS011;44361;51.476;5.700;2023-08-17T07:25:40;7.97;;;2.90;;
58581;SDS011;44361;51.476;5.700;2023-08-17T07:28:05;7.00;;;2.95;;
58581;SDS011;44361;51.476;5.700;2023-08-17T07:30:31;7.53;;;3.25;;
58581;SDS011;44361;51.476;5.700;2023-08-17T07:32:57;6.28;;;3.20;;
58581;SDS011;44361;51.476;5.700;2023-08-17T07:35:22;7.03;;;3.08;;
58581;SDS011;44361;51.476;5.700;2023-08-17T07:37:48;12.82;;;3.78;;
58581;SDS011;44361;51.476;5.700;2023-08-17T07:40:13;6.22;;;2.78;;
58581;SDS011;44361;51.476;5.700;2023-08-17T07:42:39;4.18;;;2.85;;
58581;SDS011;44361;51.476;5.700;2023-08-17T07:45:04;9.27;;;3.67;;
58581;SDS011;44361;51.476;5.700;2023-08-17T07:47:33;5.90;;;3.08;;
58581;SDS011;44361;51.476;5.700;2023-08-17T07:50:01;7.22;;;3.50;;
58581;SDS011;44361;51.476;5.700;2023-08-17T07:52:26;6.63;;;3.58;;
58581;SDS011;44361;51.476;5.700;2023-08-17T07:54:52;12.45;;;3.92;;
58581;SDS011;44361;51.476;5.700;2023-08-17T07:57:18;9.20;;;3.20;;
58581;SDS011;44361;51.476;5.700;2023-08-17T07:59:43;9.80;;;4.40;;
58581;SDS011;44361;51.476;5.700;2023-08-17T08:02:09;9.90;;;4.25;;
58581;SDS011;44361;51.476;5.700;2023-08-17T08:04:35;10.70;;;3.45;;
58581;SDS011;44361;51.476;5.700;2023-08-17T08:07:00;6.63;;;3.28;;
58581;SDS011;44361;51.476;5.700;2023-08-17T08:09:26;8.65;;;3.60;;
58581;SDS011;44361;51.476;5.700;2023-08-17T08:11:51;8.30;;;3.45;;
58581;SDS011;44361;51.476;5.700;2023-08-17T08:14:17;8.13;;;3.95;;
58581;SDS011;44361;51.476;5.700;2023-08-17T08:16:42;12.38;;;3.80;;
58581;SDS011;44361;51.476;5.700;2023-08-17T08:19:08;9.98;;;4.25;;
58581;SDS011;44361;51.476;5.700;2023-08-17T08:21:33;11.65;;;3.88;;
58581;SDS011;44361;51.476;5.700;2023-08-17T08:23:59;7.35;;;3.95;;
58581;SDS011;44361;51.476;5.700;2023-08-17T08:26:24;11.77;;;4.00;;
58581;SDS011;44361;51.476;5.700;2023-08-17T08:28:50;8.85;;;4.00;;
58581;SDS011;44361;51.476;5.700;2023-08-17T08:31:15;5.38;;;3.50;;
58581;SDS011;44361;51.476;5.700;2023-08-17T08:33:41;11.57;;;4.43;;
58581;SDS011;44361;51.476;5.700;2023-08-17T08:36:06;11.38;;;4.32;;
58581;SDS011;44361;51.476;5.700;2023-08-17T08:38:32;11.70;;;4.53;;
58581;SDS011;44361;51.476;5.700;2023-08-17T08:40:58;11.93;;;4.60;;
58581;SDS011;44361;51.476;5.700;2023-08-17T08:43:24;11.60;;;4.97;;
58581;SDS011;44361;51.476;5.700;2023-08-17T08:45:50;10.93;;;4.47;;
58581;SDS011;44361;51.476;5.700;2023-08-17T08:48:17;11.52;;;4.30;;
58581;SDS011;44361;51.476;5.700;2023-08-17T08:50:43;10.48;;;3.75;;
58581;SDS011;44361;51.476;5.700;2023-08-17T08:53:15;11.57;;;4.70;;
58581;SDS011;44361;51.476;5.700;2023-08-17T08:55:50;9.38;;;3.95;;
58581;SDS011;44361;51.476;5.700;2023-08-17T08:58:21;15.18;;;4.00;;
58581;SDS011;44361;51.476;5.700;2023-08-17T09:00:47;11.43;;;4.32;;
58581;SDS011;44361;51.476;5.700;2023-08-17T09:03:13;6.47;;;3.83;;
58581;SDS011;44361;51.476;5.700;2023-08-17T09:05:42;9.55;;;4.07;;
58581;SDS011;44361;51.476;5.700;2023-08-17T09:08:09;12.77;;;5.78;;
58581;SDS011;44361;51.476;5.700;2023-08-17T09:10:36;12.35;;;4.90;;
58581;SDS011;44361;51.476;5.700;2023-08-17T09:13:02;10.23;;;4.28;;
58581;SDS011;44361;51.476;5.700;2023-08-17T09:15:28;7.72;;;5.03;;
58581;SDS011;44361;51.476;5.700;2023-08-17T09:17:54;8.30;;;3.70;;
58581;SDS011;44361;51.476;5.700;2023-08-17T09:23:14;10.38;;;4.30;;
58581;SDS011;44361;51.476;5.700;2023-08-17T09:25:41;9.63;;;4.65;;
58581;SDS011;44361;51.476;5.700;2023-08-17T09:28:09;8.13;;;4.43;;
58581;SDS011;44361;51.476;5.700;2023-08-17T09:30:49;20.70;;;6.47;;
58581;SDS011;44361;51.476;5.700;2023-08-17T09:33:16;13.48;;;5.25;;
58581;SDS011;44361;51.476;5.700;2023-08-17T09:35:42;14.93;;;5.75;;
58581;SDS011;44361;51.476;5.700;2023-08-17T09:38:08;13.38;;;4.88;;
58581;SDS011;44361;51.476;5.700;2023-08-17T09:40:34;13.27;;;6.07;;
58581;SDS011;44361;51.476;5.700;2023-08-17T09:42:59;16.00;;;6.43;;
58581;SDS011;44361;51.476;5.700;2023-08-17T09:45:27;16.20;;;6.70;;
58581;SDS011;44361;51.476;5.700;2023-08-17T09:47:53;19.05;;;6.78;;
58581;SDS011;44361;51.476;5.700;2023-08-17T09:50:21;22.15;;;7.72;;
58581;SDS011;44361;51.476;5.700;2023-08-17T09:52:47;14.10;;;6.88;;
58581;SDS011;44361;51.476;5.700;2023-08-17T09:55:17;14.95;;;6.45;;
58581;SDS011;44361;51.476;5.700;2023-08-17T09:57:43;20.23;;;6.35;;
58581;SDS011;44361;51.476;5.700;2023-08-17T10:00:10;19.75;;;8.10;;
58581;SDS011;44361;51.476;5.700;2023-08-17T10:02:36;16.40;;;6.90;;
58581;SDS011;44361;51.476;5.700;2023-08-17T10:05:02;15.07;;;6.70;;
58581;SDS011;44361;51.476;5.700;2023-08-17T10:07:30;15.70;;;7.40;;
58581;SDS011;44361;51.476;5.700;2023-08-17T10:10:05;17.00;;;6.50;;
58581;SDS011;44361;51.476;5.700;2023-08-17T10:12:44;18.52;;;6.50;;
58581;SDS011;44361;51.476;5.700;2023-08-17T10:15:13;15.02;;;6.72;;
58581;SDS011;44361;51.476;5.700;2023-08-17T10:17:44;14.00;;;6.50;;
58581;SDS011;44361;51.476;5.700;2023-08-17T10:20:18;16.05;;;7.03;;
58581;SDS011;44361;51.476;5.700;2023-08-17T10:25:16;18.98;;;7.15;;
58581;SDS011;44361;51.476;5.700;2023-08-17T10:27:43;18.27;;;8.07;;
58581;SDS011;44361;51.476;5.700;2023-08-17T10:30:10;19.60;;;7.70;;
58581;SDS011;44361;51.476;5.700;2023-08-17T10:32:36;20.02;;;7.65;;
58581;SDS011;44361;51.476;5.700;2023-08-17T10:35:02;19.65;;;7.90;;
58581;SDS011;44361;51.476;5.700;2023-08-17T10:37:29;17.40;;;7.88;;
58581;SDS011;44361;51.476;5.700;2023-08-17T10:39:55;20.90;;;7.85;;
58581;SDS011;44361;51.476;5.700;2023-08-17T10:42:31;15.90;;;6.93;;
58581;SDS011;44361;51.476;5.700;2023-08-17T10:45:01;17.33;;;7.75;;
58581;SDS011;44361;51.476;5.700;2023-08-17T10:47:45;16.47;;;7.40;;
58581;SDS011;44361;51.476;5.700;2023-08-17T10:50:20;21.70;;;7.72;;
58581;SDS011;44361;51.476;5.700;2023-08-17T10:52:48;14.93;;;7.30;;
58581;SDS011;44361;51.476;5.700;2023-08-17T10:55:15;15.23;;;6.88;;
58581;SDS011;44361;51.476;5.700;2023-08-17T10:57:41;22.40;;;7.68;;
58581;SDS011;44361;51.476;5.700;2023-08-17T11:00:17;14.65;;;6.80;;
58581;SDS011;44361;51.476;5.700;2023-08-17T11:02:59;16.52;;;7.43;;
58581;SDS011;44361;51.476;5.700;2023-08-17T11:05:49;14.85;;;7.38;;
58581;SDS011;44361;51.476;5.700;2023-08-17T11:08:22;16.90;;;7.75;;
58581;SDS011;44361;51.476;5.700;2023-08-17T11:11:03;16.83;;;6.65;;
58581;SDS011;44361;51.476;5.700;2023-08-17T11:13:38;17.77;;;7.18;;
58581;SDS011;44361;51.476;5.700;2023-08-17T11:16:05;15.98;;;7.35;;
58581;SDS011;44361;51.476;5.700;2023-08-17T11:18:32;17.50;;;7.15;;
58581;SDS011;44361;51.476;5.700;2023-08-17T11:20:58;13.20;;;7.80;;
58581;SDS011;44361;51.476;5.700;2023-08-17T11:23:28;11.75;;;6.85;;
58581;SDS011;44361;51.476;5.700;2023-08-17T11:25:54;17.02;;;7.38;;
58581;SDS011;44361;51.476;5.700;2023-08-17T11:28:20;12.98;;;6.95;;
58581;SDS011;44361;51.476;5.700;2023-08-17T11:30:55;15.52;;;7.75;;
58581;SDS011;44361;51.476;5.700;2023-08-17T11:33:22;16.45;;;7.53;;
58581;SDS011;44361;51.476;5.700;2023-08-17T11:35:48;15.38;;;7.15;;
58581;SDS011;44361;51.476;5.700;2023-08-17T11:38:15;20.17;;;7.93;;
58581;SDS011;44361;51.476;5.700;2023-08-17T11:40:40;12.13;;;7.10;;
58581;SDS011;44361;51.476;5.700;2023-08-17T11:43:06;14.40;;;6.90;;
58581;SDS011;44361;51.476;5.700;2023-08-17T11:45:32;11.27;;;5.93;;
58581;SDS011;44361;51.476;5.700;2023-08-17T11:47:58;10.48;;;6.22;;
58581;SDS011;44361;51.476;5.700;2023-08-17T11:50:24;15.05;;;6.75;;
58581;SDS011;44361;51.476;5.700;2023-08-17T11:52:50;16.15;;;7.05;;
58581;SDS011;44361;51.476;5.700;2023-08-17T11:55:16;17.63;;;7.10;;
58581;SDS011;44361;51.476;5.700;2023-08-17T11:57:45;14.10;;;7.32;;
58581;SDS011;44361;51.476;5.700;2023-08-17T12:00:16;12.40;;;6.72;;
58581;SDS011;44361;51.476;5.700;2023-08-17T12:02:43;11.15;;;6.75;;
58581;SDS011;44361;51.476;5.700;2023-08-17T12:05:21;12.90;;;7.32;;
58581;SDS011;44361;51.476;5.700;2023-08-17T12:07:52;10.57;;;7.25;;
58581;SDS011;44361;51.476;5.700;2023-08-17T12:10:18;15.07;;;7.70;;
58581;SDS011;44361;51.476;5.700;2023-08-17T12:12:46;16.17;;;7.55;;
58581;SDS011;44361;51.476;5.700;2023-08-17T12:15:15;12.95;;;7.13;;
58581;SDS011;44361;51.476;5.700;2023-08-17T12:17:48;11.63;;;7.15;;
58581;SDS011;44361;51.476;5.700;2023-08-17T12:20:18;10.52;;;6.78;;
58581;SDS011;44361;51.476;5.700;2023-08-17T12:22:45;13.07;;;7.93;;
58581;SDS011;44361;51.476;5.700;2023-08-17T12:25:12;13.93;;;7.03;;
58581;SDS011;44361;51.476;5.700;2023-08-17T12:27:38;14.00;;;7.55;;
58581;SDS011;44361;51.476;5.700;2023-08-17T12:30:04;17.70;;;7.40;;
58581;SDS011;44361;51.476;5.700;2023-08-17T12:32:36;13.75;;;7.28;;
58581;SDS011;44361;51.476;5.700;2023-08-17T12:35:02;14.82;;;6.90;;
58581;SDS011;44361;51.476;5.700;2023-08-17T12:37:28;15.50;;;7.80;;
58581;SDS011;44361;51.476;5.700;2023-08-17T12:39:54;14.15;;;6.63;;
58581;SDS011;44361;51.476;5.700;2023-08-17T12:42:19;12.93;;;7.20;;
58581;SDS011;44361;51.476;5.700;2023-08-17T12:44:45;12.15;;;7.18;;
58581;SDS011;44361;51.476;5.700;2023-08-17T12:47:10;16.30;;;7.68;;
58581;SDS011;44361;51.476;5.700;2023-08-17T12:49:36;12.80;;;7.40;;
58581;SDS011;44361;51.476;5.700;2023-08-17T12:52:02;20.08;;;7.97;;
58581;SDS011;44361;51.476;5.700;2023-08-17T12:54:27;12.88;;;6.82;;
58581;SDS011;44361;51.476;5.700;2023-08-17T12:56:53;13.23;;;7.80;;
58581;SDS011;44361;51.476;5.700;2023-08-17T12:59:18;16.70;;;7.90;;
58581;SDS011;44361;51.476;5.700;2023-08-17T13:01:44;14.32;;;7.95;;
58581;SDS011;44361;51.476;5.700;2023-08-17T13:04:10;13.05;;;8.02;;
58581;SDS011;44361;51.476;5.700;2023-08-17T13:06:35;16.55;;;8.82;;
58581;SDS011;44361;51.476;5.700;2023-08-17T13:09:01;12.15;;;8.00;;
58581;SDS011;44361;51.476;5.700;2023-08-17T13:11:27;13.90;;;8.27;;
58581;SDS011;44361;51.476;5.700;2023-08-17T13:13:52;14.60;;;7.70;;
58581;SDS011;44361;51.476;5.700;2023-08-17T13:16:18;16.42;;;8.70;;
58581;SDS011;44361;51.476;5.700;2023-08-17T13:18:43;12.30;;;8.40;;
58581;SDS011;44361;51.476;5.700;2023-08-17T13:21:09;16.00;;;8.63;;
58581;SDS011;44361;51.476;5.700;2023-08-17T13:23:35;13.32;;;8.80;;
58581;SDS011;44361;51.476;5.700;2023-08-17T13:26:00;12.90;;;9.23;;
58581;SDS011;44361;51.476;5.700;2023-08-17T13:28:26;16.52;;;8.43;;
58581;SDS011;44361;51.476;5.700;2023-08-17T13:30:51;14.32;;;8.82;;
58581;SDS011;44361;51.476;5.700;2023-08-17T13:33:17;16.83;;;8.45;;
58581;SDS011;44361;51.476;5.700;2023-08-17T13:35:43;19.27;;;9.77;;
58581;SDS011;44361;51.476;5.700;2023-08-17T13:38:08;16.42;;;8.23;;
58581;SDS011;44361;51.476;5.700;2023-08-17T13:40:34;17.05;;;9.95;;
58581;SDS011;44361;51.476;5.700;2023-08-17T13:43:01;13.13;;;8.35;;
58581;SDS011;44361;51.476;5.700;2023-08-17T13:45:28;20.92;;;9.25;;
58581;SDS011;44361;51.476;5.700;2023-08-17T13:47:53;17.00;;;9.18;;
58581;SDS011;44361;51.476;5.700;2023-08-17T13:50:19;16.52;;;9.52;;
58581;SDS011;44361;51.476;5.700;2023-08-17T13:52:44;15.07;;;9.10;;
58581;SDS011;44361;51.476;5.700;2023-08-17T13:55:10;11.68;;;9.07;;
58581;SDS011;44361;51.476;5.700;2023-08-17T13:57:36;15.73;;;9.07;;
58581;SDS011;44361;51.476;5.700;2023-08-17T14:00:02;17.42;;;9.90;;
58581;SDS011;44361;51.476;5.700;2023-08-17T14:02:29;15.90;;;10.13;;
58581;SDS011;44361;51.476;5.700;2023-08-17T14:04:54;14.23;;;8.85;;
58581;SDS011;44361;51.476;5.700;2023-08-17T14:07:20;14.45;;;9.13;;
58581;SDS011;44361;51.476;5.700;2023-08-17T14:09:45;18.35;;;10.48;;
58581;SDS011;44361;51.476;5.700;2023-08-17T14:12:11;17.10;;;10.60;;
58581;SDS011;44361;51.476;5.700;2023-08-17T14:14:36;15.10;;;9.55;;
58581;SDS011;44361;51.476;5.700;2023-08-17T14:17:02;16.02;;;9.77;;
58581;SDS011;44361;51.476;5.700;2023-08-17T14:19:27;14.60;;;9.38;;
58581;SDS011;44361;51.476;5.700;2023-08-17T14:21:53;16.15;;;10.00;;
58581;SDS011;44361;51.476;5.700;2023-08-17T14:24:19;14.90;;;9.05;;
58581;SDS011;44361;51.476;5.700;2023-08-17T14:26:44;14.38;;;9.43;;
58581;SDS011;44361;51.476;5.700;2023-08-17T14:29:10;16.77;;;10.40;;
58581;SDS011;44361;51.476;5.700;2023-08-17T14:31:35;19.00;;;9.82;;
58581;SDS011;44361;51.476;5.700;2023-08-17T14:34:01;16.45;;;9.38;;
58581;SDS011;44361;51.476;5.700;2023-08-17T14:36:26;15.88;;;9.80;;
58581;SDS011;44361;51.476;5.700;2023-08-17T14:38:52;17.33;;;9.85;;
58581;SDS011;44361;51.476;5.700;2023-08-17T14:41:17;14.82;;;9.65;;
58581;SDS011;44361;51.476;5.700;2023-08-17T14:43:43;18.88;;;10.80;;
58581;SDS011;44361;51.476;5.700;2023-08-17T14:46:09;21.17;;;10.65;;
58581;SDS011;44361;51.476;5.700;2023-08-17T14:48:34;19.73;;;11.23;;